Piacenza Airport LIMS

Flugplatz Daten

Name: Piacenza Airport

Ident: LIMS

Lat: 44,9131012

Long: 9,723329544

Platzhöhe: 456 ft

IataCode: QPZ

City: Piacenza

Metar

2021/08/05 12:55
LIMS 051255Z 30009KT 270V030 9999 FEW035 30/13 Q1005 RMK SCT SCT200 VIS MIN 9999 WIND THR30 33010KT BLU

Taf

2015/10/16 09:21
TAF TAF LIMS 160800Z 1609/1621 VRB05KT 9999 SCT030
BECMG 1613/1615 35007KT SCT030 BKN060
Gewünschte Webcam nicht vorhanden? Dann fügen Sie eine hinzu. Sie wird dann so schnell wie möglich freigeschaltet
Url: Title: